sensor_id;sensor_type;location;lat;lon;timestamp;pressure;altitude;pressure_sealevel;temperature;humidity
76321;BME280;65132;52.088;5.402;2022-11-18T00:01:07;99583.69;;;7.75;91.92
76321;BME280;65132;52.088;5.402;2022-11-18T00:03:35;99593.00;;;7.80;92.47
76321;BME280;65132;52.088;5.402;2022-11-18T00:06:02;99597.94;;;7.85;92.18
76321;BME280;65132;52.088;5.402;2022-11-18T00:08:29;99599.91;;;7.83;92.39
76321;BME280;65132;52.088;5.402;2022-11-18T00:10:55;99601.22;;;7.79;92.42
76321;BME280;65132;52.088;5.402;2022-11-18T00:13:22;99602.53;;;7.75;92.37
76321;BME280;65132;52.088;5.402;2022-11-18T00:15:48;99604.25;;;7.76;91.70
76321;BME280;65132;52.088;5.402;2022-11-18T00:18:15;99611.47;;;7.75;92.24
76321;BME280;65132;52.088;5.402;2022-11-18T00:20:42;99619.88;;;7.72;92.81
76321;BME280;65132;52.088;5.402;2022-11-18T00:23:08;99623.25;;;7.74;93.25
76321;BME280;65132;52.088;5.402;2022-11-18T00:25:35;99619.88;;;7.72;92.32
76321;BME280;65132;52.088;5.402;2022-11-18T00:28:01;99624.88;;;7.67;92.84
76321;BME280;65132;52.088;5.402;2022-11-18T00:30:28;99624.34;;;7.64;92.70
76321;BME280;65132;52.088;5.402;2022-11-18T00:32:54;99633.56;;;7.61;92.39
76321;BME280;65132;52.088;5.402;2022-11-18T00:35:21;99639.94;;;7.60;93.56
76321;BME280;65132;52.088;5.402;2022-11-18T00:37:47;99635.09;;;7.64;92.36
76321;BME280;65132;52.088;5.402;2022-11-18T00:40:13;99638.66;;;7.64;93.04
76321;BME280;65132;52.088;5.402;2022-11-18T00:42:40;99639.19;;;7.68;92.60
76321;BME280;65132;52.088;5.402;2022-11-18T00:45:07;99642.66;;;7.60;93.08
76321;BME280;65132;52.088;5.402;2022-11-18T00:47:33;99634.03;;;7.57;93.03
76321;BME280;65132;52.088;5.402;2022-11-18T00:50:00;99654.56;;;7.58;92.96
76321;BME280;65132;52.088;5.402;2022-11-18T00:52:26;99644.41;;;7.52;93.44
76321;BME280;65132;52.088;5.402;2022-11-18T00:54:52;99661.81;;;7.57;93.35
76321;BME280;65132;52.088;5.402;2022-11-18T00:57:19;99664.13;;;7.52;93.36
76321;BME280;65132;52.088;5.402;2022-11-18T00:59:45;99659.72;;;7.51;93.49
76321;BME280;65132;52.088;5.402;2022-11-18T01:02:12;99660.41;;;7.53;93.51
76321;BME280;65132;52.088;5.402;2022-11-18T01:04:38;99662.25;;;7.53;93.12
76321;BME280;65132;52.088;5.402;2022-11-18T01:07:04;99659.50;;;7.45;93.30
76321;BME280;65132;52.088;5.402;2022-11-18T01:09:31;99661.72;;;7.49;93.07
76321;BME280;65132;52.088;5.402;2022-11-18T01:11:57;99665.41;;;7.48;93.36
76321;BME280;65132;52.088;5.402;2022-11-18T01:14:24;99675.88;;;7.51;93.55
76321;BME280;65132;52.088;5.402;2022-11-18T01:16:55;99677.03;;;7.49;93.22
76321;BME280;65132;52.088;5.402;2022-11-18T01:19:23;99682.09;;;7.52;93.40
76321;BME280;65132;52.088;5.402;2022-11-18T01:21:49;99687.97;;;7.47;93.36
76321;BME280;65132;52.088;5.402;2022-11-18T01:24:16;99678.72;;;7.50;93.04
76321;BME280;65132;52.088;5.402;2022-11-18T01:26:43;99679.50;;;7.42;94.11
76321;BME280;65132;52.088;5.402;2022-11-18T01:29:09;99688.41;;;7.43;94.27
76321;BME280;65132;52.088;5.402;2022-11-18T01:31:36;99694.47;;;7.45;94.01
76321;BME280;65132;52.088;5.402;2022-11-18T01:34:23;99694.78;;;7.42;93.46
76321;BME280;65132;52.088;5.402;2022-11-18T01:36:51;99698.94;;;7.36;94.17
76321;BME280;65132;52.088;5.402;2022-11-18T01:39:17;99691.72;;;7.37;94.42
76321;BME280;65132;52.088;5.402;2022-11-18T01:41:44;99698.38;;;7.32;94.26
76321;BME280;65132;52.088;5.402;2022-11-18T01:47:15;99714.09;;;7.37;94.09
76321;BME280;65132;52.088;5.402;2022-11-18T01:49:41;99712.38;;;7.36;94.07
76321;BME280;65132;52.088;5.402;2022-11-18T01:52:08;99710.84;;;7.34;94.06
76321;BME280;65132;52.088;5.402;2022-11-18T01:54:38;99714.09;;;7.37;94.34
76321;BME280;65132;52.088;5.402;2022-11-18T01:57:11;99718.78;;;7.35;94.28
76321;BME280;65132;52.088;5.402;2022-11-18T01:59:40;99720.16;;;7.39;94.37
76321;BME280;65132;52.088;5.402;2022-11-18T02:02:11;99715.06;;;7.36;94.21
76321;BME280;65132;52.088;5.402;2022-11-18T02:04:42;99717.75;;;7.36;94.31
76321;BME280;65132;52.088;5.402;2022-11-18T02:07:10;99716.78;;;7.37;94.08
76321;BME280;65132;52.088;5.402;2022-11-18T02:09:37;99724.59;;;7.30;94.46
76321;BME280;65132;52.088;5.402;2022-11-18T02:12:04;99723.91;;;7.28;94.46
76321;BME280;65132;52.088;5.402;2022-11-18T02:14:34;99723.38;;;7.25;94.52
76321;BME280;65132;52.088;5.402;2022-11-18T02:20:27;99739.66;;;7.23;95.00
76321;BME280;65132;52.088;5.402;2022-11-18T02:29:08;99747.03;;;7.21;95.21
76321;BME280;65132;52.088;5.402;2022-11-18T02:31:53;99743.34;;;7.22;94.93
76321;BME280;65132;52.088;5.402;2022-11-18T02:37:37;99745.47;;;7.19;95.02
76321;BME280;65132;52.088;5.402;2022-11-18T02:43:06;99751.72;;;7.19;95.33
76321;BME280;65132;52.088;5.402;2022-11-18T02:45:34;99751.88;;;7.18;95.25
76321;BME280;65132;52.088;5.402;2022-11-18T02:48:05;99750.88;;;7.19;95.25
76321;BME280;65132;52.088;5.402;2022-11-18T02:50:34;99759.34;;;7.24;94.98
76321;BME280;65132;52.088;5.402;2022-11-18T02:53:04;99750.84;;;7.28;95.31
76321;BME280;65132;52.088;5.402;2022-11-18T02:55:35;99761.44;;;7.30;95.61
76321;BME280;65132;52.088;5.402;2022-11-18T02:58:04;99762.53;;;7.37;95.72
76321;BME280;65132;52.088;5.402;2022-11-18T03:00:32;99760.50;;;7.39;95.08
76321;BME280;65132;52.088;5.402;2022-11-18T03:02:58;99768.59;;;7.39;94.62
76321;BME280;65132;52.088;5.402;2022-11-18T03:05:38;99768.19;;;7.34;95.37
76321;BME280;65132;52.088;5.402;2022-11-18T03:08:12;99771.91;;;7.33;94.75
76321;BME280;65132;52.088;5.402;2022-11-18T03:11:02;99776.28;;;7.34;94.66
76321;BME280;65132;52.088;5.402;2022-11-18T03:13:42;99781.66;;;7.34;95.46
76321;BME280;65132;52.088;5.402;2022-11-18T03:16:19;99779.28;;;7.31;95.15
76321;BME280;65132;52.088;5.402;2022-11-18T03:21:44;99780.69;;;7.35;95.43
76321;BME280;65132;52.088;5.402;2022-11-18T03:24:20;99793.38;;;7.43;95.07
76321;BME280;65132;52.088;5.402;2022-11-18T03:26:52;99798.19;;;7.39;95.48
76321;BME280;65132;52.088;5.402;2022-11-18T03:29:25;99794.91;;;7.45;95.29
76321;BME280;65132;52.088;5.402;2022-11-18T03:31:58;99794.91;;;7.45;95.26
76321;BME280;65132;52.088;5.402;2022-11-18T03:34:32;99800.47;;;7.44;95.46
76321;BME280;65132;52.088;5.402;2022-11-18T03:37:00;99799.44;;;7.45;95.13
76321;BME280;65132;52.088;5.402;2022-11-18T03:39:38;99798.75;;;7.43;95.50
76321;BME280;65132;52.088;5.402;2022-11-18T03:42:11;99804.69;;;7.46;95.44
76321;BME280;65132;52.088;5.402;2022-11-18T03:44:45;99809.91;;;7.48;95.17
76321;BME280;65132;52.088;5.402;2022-11-18T03:47:25;99813.59;;;7.47;96.29
76321;BME280;65132;52.088;5.402;2022-11-18T03:50:09;99819.69;;;7.49;96.09
76321;BME280;65132;52.088;5.402;2022-11-18T03:52:38;99829.44;;;7.50;95.34
76321;BME280;65132;52.088;5.402;2022-11-18T03:55:10;99830.31;;;7.50;95.66
76321;BME280;65132;52.088;5.402;2022-11-18T03:57:45;99833.97;;;7.49;95.39
76321;BME280;65132;52.088;5.402;2022-11-18T04:00:16;99836.66;;;7.49;95.78
76321;BME280;65132;52.088;5.402;2022-11-18T04:02:43;99832.91;;;7.42;95.65
76321;BME280;65132;52.088;5.402;2022-11-18T04:05:12;99844.34;;;7.44;96.28
76321;BME280;65132;52.088;5.402;2022-11-18T04:07:54;99840.59;;;7.37;95.62
76321;BME280;65132;52.088;5.402;2022-11-18T04:10:26;99843.69;;;7.32;96.17
76321;BME280;65132;52.088;5.402;2022-11-18T04:13:03;99842.72;;;7.34;96.24
76321;BME280;65132;52.088;5.402;2022-11-18T04:15:35;99854.06;;;7.27;96.55
76321;BME280;65132;52.088;5.402;2022-11-18T04:18:02;99852.22;;;7.28;96.53
76321;BME280;65132;52.088;5.402;2022-11-18T04:20:28;99855.50;;;7.22;96.70
76321;BME280;65132;52.088;5.402;2022-11-18T04:22:55;99853.66;;;7.22;96.93
76321;BME280;65132;52.088;5.402;2022-11-18T04:25:21;99853.97;;;7.19;96.98
76321;BME280;65132;52.088;5.402;2022-11-18T04:27:48;99866.41;;;7.20;96.60
76321;BME280;65132;52.088;5.402;2022-11-18T04:30:14;99870.09;;;7.19;96.55
76321;BME280;65132;52.088;5.402;2022-11-18T04:32:41;99874.78;;;7.17;97.30
76321;BME280;65132;52.088;5.402;2022-11-18T04:35:08;99864.16;;;7.16;96.71
76321;BME280;65132;52.088;5.402;2022-11-18T04:37:34;99874.22;;;7.14;96.91
76321;BME280;65132;52.088;5.402;2022-11-18T04:40:01;99884.28;;;7.12;96.72
76321;BME280;65132;52.088;5.402;2022-11-18T04:42:27;99896.03;;;7.11;96.75
76321;BME280;65132;52.088;5.402;2022-11-18T04:44:54;99883.88;;;7.07;96.65
76321;BME280;65132;52.088;5.402;2022-11-18T04:47:21;99900.72;;;7.09;97.19
76321;BME280;65132;52.088;5.402;2022-11-18T04:49:47;99895.06;;;7.02;96.92
76321;BME280;65132;52.088;5.402;2022-11-18T04:52:14;99888.97;;;7.00;97.16
76321;BME280;65132;52.088;5.402;2022-11-18T04:54:40;99896.03;;;7.01;96.93
76321;BME280;65132;52.088;5.402;2022-11-18T04:57:07;99895.94;;;7.03;97.46
76321;BME280;65132;52.088;5.402;2022-11-18T04:59:34;99897.91;;;7.01;97.50
76321;BME280;65132;52.088;5.402;2022-11-18T05:02:00;99903.13;;;7.02;96.60
76321;BME280;65132;52.088;5.402;2022-11-18T05:04:32;99901.44;;;7.01;97.09
76321;BME280;65132;52.088;5.402;2022-11-18T05:06:59;99907.50;;;7.03;96.58
76321;BME280;65132;52.088;5.402;2022-11-18T05:09:27;99911.91;;;7.04;97.07
76321;BME280;65132;52.088;5.402;2022-11-18T05:11:57;99920.56;;;7.08;97.05
76321;BME280;65132;52.088;5.402;2022-11-18T05:14:25;99918.41;;;7.02;96.61
76321;BME280;65132;52.088;5.402;2022-11-18T05:16:52;99926.91;;;7.07;97.09
76321;BME280;65132;52.088;5.402;2022-11-18T05:19:19;99920.81;;;7.05;97.00
76321;BME280;65132;52.088;5.402;2022-11-18T05:21:46;99931.00;;;7.11;97.42
76321;BME280;65132;52.088;5.402;2022-11-18T05:24:12;99929.28;;;7.10;97.76
76321;BME280;65132;52.088;5.402;2022-11-18T05:26:39;99925.94;;;7.08;96.55
76321;BME280;65132;52.088;5.402;2022-11-18T05:29:06;99926.19;;;7.05;97.21
76321;BME280;65132;52.088;5.402;2022-11-18T05:31:32;99935.97;;;7.06;96.42
76321;BME280;65132;52.088;5.402;2022-11-18T05:33:59;99940.91;;;7.10;97.50
76321;BME280;65132;52.088;5.402;2022-11-18T05:36:27;99938.38;;;7.09;97.33
76321;BME280;65132;52.088;5.402;2022-11-18T05:38:57;99948.84;;;7.12;96.82
76321;BME280;65132;52.088;5.402;2022-11-18T05:41:26;99948.56;;;7.15;96.54
76321;BME280;65132;52.088;5.402;2022-11-18T05:43:55;99953.38;;;7.11;96.99
76321;BME280;65132;52.088;5.402;2022-11-18T05:46:21;99962.69;;;7.17;97.47
76321;BME280;65132;52.088;5.402;2022-11-18T05:48:48;99963.44;;;7.09;96.70
76321;BME280;65132;52.088;5.402;2022-11-18T05:51:14;99962.16;;;7.04;97.31
76321;BME280;65132;52.088;5.402;2022-11-18T05:53:42;99958.47;;;7.05;97.33
76321;BME280;65132;52.088;5.402;2022-11-18T05:56:18;99958.06;;;7.00;97.16
76321;BME280;65132;52.088;5.402;2022-11-18T05:58:46;99963.16;;;6.93;97.21
76321;BME280;65132;52.088;5.402;2022-11-18T06:01:17;99960.75;;;6.90;97.75
76321;BME280;65132;52.088;5.402;2022-11-18T06:03:45;99963.75;;;6.87;97.78
76321;BME280;65132;52.088;5.402;2022-11-18T06:06:14;99964.31;;;6.91;97.70
76321;BME280;65132;52.088;5.402;2022-11-18T06:08:48;99965.44;;;6.88;97.68
76321;BME280;65132;52.088;5.402;2022-11-18T06:11:17;99977.19;;;6.87;97.20
76321;BME280;65132;52.088;5.402;2022-11-18T06:13:50;99982.00;;;6.84;97.47
76321;BME280;65132;52.088;5.402;2022-11-18T06:16:26;99975.78;;;6.83;97.82
76321;BME280;65132;52.088;5.402;2022-11-18T06:18:55;99987.25;;;6.85;97.90
76321;BME280;65132;52.088;5.402;2022-11-18T06:21:22;99983.13;;;6.91;97.73
76321;BME280;65132;52.088;5.402;2022-11-18T06:23:48;99987.09;;;6.87;97.79
76321;BME280;65132;52.088;5.402;2022-11-18T06:26:16;100002.22;;;6.88;97.23
76321;BME280;65132;52.088;5.402;2022-11-18T06:28:44;99993.47;;;6.86;97.56
76321;BME280;65132;52.088;5.402;2022-11-18T06:31:12;100004.63;;;6.81;98.10
76321;BME280;65132;52.088;5.402;2022-11-18T06:33:38;99996.72;;;6.80;97.62
76321;BME280;65132;52.088;5.402;2022-11-18T06:36:08;100006.19;;;6.74;97.75
76321;BME280;65132;52.088;5.402;2022-11-18T06:38:35;100012.28;;;6.76;98.20
76321;BME280;65132;52.088;5.402;2022-11-18T06:41:01;100016.81;;;6.76;97.94
76321;BME280;65132;52.088;5.402;2022-11-18T06:43:28;100009.44;;;6.78;97.39
76321;BME280;65132;52.088;5.402;2022-11-18T06:45:58;100021.47;;;6.83;98.00
76321;BME280;65132;52.088;5.402;2022-11-18T06:48:31;100032.66;;;6.88;97.89
76321;BME280;65132;52.088;5.402;2022-11-18T06:50:57;100028.69;;;6.83;97.56
76321;BME280;65132;52.088;5.402;2022-11-18T06:53:24;100036.06;;;6.81;97.26
76321;BME280;65132;52.088;5.402;2022-11-18T06:55:50;100044.97;;;6.81;97.62
76321;BME280;65132;52.088;5.402;2022-11-18T06:58:17;100043.13;;;6.82;97.72
76321;BME280;65132;52.088;5.402;2022-11-18T07:00:43;100053.31;;;6.78;98.04
76321;BME280;65132;52.088;5.402;2022-11-18T07:03:10;100055.72;;;6.72;97.29
76321;BME280;65132;52.088;5.402;2022-11-18T07:05:36;100054.72;;;6.73;97.79
76321;BME280;65132;52.088;5.402;2022-11-18T07:08:03;100055.88;;;6.70;97.73
76321;BME280;65132;52.088;5.402;2022-11-18T07:10:29;100056.00;;;6.69;97.75
76321;BME280;65132;52.088;5.402;2022-11-18T07:12:56;100053.56;;;6.66;97.47
76321;BME280;65132;52.088;5.402;2022-11-18T07:15:22;100064.47;;;6.64;97.56
76321;BME280;65132;52.088;5.402;2022-11-18T07:17:49;100062.34;;;6.58;97.60
76321;BME280;65132;52.088;5.402;2022-11-18T07:20:15;100058.38;;;6.62;97.50
76321;BME280;65132;52.088;5.402;2022-11-18T07:22:41;100077.09;;;6.64;97.81
76321;BME280;65132;52.088;5.402;2022-11-18T07:25:08;100082.19;;;6.67;97.45
76321;BME280;65132;52.088;5.402;2022-11-18T07:27:35;100074.41;;;6.64;97.52
76321;BME280;65132;52.088;5.402;2022-11-18T07:30:02;100081.19;;;6.68;97.17
76321;BME280;65132;52.088;5.402;2022-11-18T07:32:28;100086.16;;;6.72;97.37
76321;BME280;65132;52.088;5.402;2022-11-18T07:34:55;100089.97;;;6.79;96.67
76321;BME280;65132;52.088;5.402;2022-11-18T07:37:21;100097.63;;;6.84;96.93
76321;BME280;65132;52.088;5.402;2022-11-18T07:39:48;100103.00;;;6.93;97.00
76321;BME280;65132;52.088;5.402;2022-11-18T07:42:14;100091.16;;;6.96;95.93
76321;BME280;65132;52.088;5.402;2022-11-18T07:44:41;100113.69;;;7.23;96.16
76321;BME280;65132;52.088;5.402;2022-11-18T07:47:07;100115.66;;;7.50;93.91
76321;BME280;65132;52.088;5.402;2022-11-18T07:49:33;100115.56;;;7.88;92.79
76321;BME280;65132;52.088;5.402;2022-11-18T07:52:00;100113.53;;;8.56;89.82
76321;BME280;65132;52.088;5.402;2022-11-18T07:54:27;100115.75;;;8.42;89.32
76321;BME280;65132;52.088;5.402;2022-11-18T07:56:53;100133.69;;;8.61;89.62
76321;BME280;65132;52.088;5.402;2022-11-18T07:59:19;100128.59;;;9.03;87.64
76321;BME280;65132;52.088;5.402;2022-11-18T08:01:46;100136.47;;;8.96;87.92
76321;BME280;65132;52.088;5.402;2022-11-18T08:04:13;100135.88;;;9.02;87.67
76321;BME280;65132;52.088;5.402;2022-11-18T08:06:39;100142.50;;;8.81;89.05
76321;BME280;65132;52.088;5.402;2022-11-18T08:09:06;100144.25;;;8.99;87.84
76321;BME280;65132;52.088;5.402;2022-11-18T08:11:33;100143.16;;;9.54;85.98
76321;BME280;65132;52.088;5.402;2022-11-18T08:14:00;100146.13;;;9.69;85.27
76321;BME280;65132;52.088;5.402;2022-11-18T08:16:27;100158.94;;;9.32;86.28
76321;BME280;65132;52.088;5.402;2022-11-18T08:18:54;100158.78;;;9.16;87.16
76321;BME280;65132;52.088;5.402;2022-11-18T08:21:22;100165.13;;;8.97;88.15
76321;BME280;65132;52.088;5.402;2022-11-18T08:23:50;100164.78;;;9.10;87.74
76321;BME280;65132;52.088;5.402;2022-11-18T08:26:17;100151.34;;;9.00;88.02
76321;BME280;65132;52.088;5.402;2022-11-18T08:28:44;100168.53;;;8.72;90.00
76321;BME280;65132;52.088;5.402;2022-11-18T08:31:16;100172.41;;;8.70;89.07
76321;BME280;65132;52.088;5.402;2022-11-18T08:33:43;100175.25;;;8.68;89.61
76321;BME280;65132;52.088;5.402;2022-11-18T08:36:15;100182.50;;;8.58;90.52
76321;BME280;65132;52.088;5.402;2022-11-18T08:38:41;100182.06;;;8.63;90.07
76321;BME280;65132;52.088;5.402;2022-11-18T08:41:19;100186.22;;;8.84;89.09
76321;BME280;65132;52.088;5.402;2022-11-18T08:43:46;100185.97;;;8.78;89.37
76321;BME280;65132;52.088;5.402;2022-11-18T08:46:13;100183.28;;;9.05;87.93
76321;BME280;65132;52.088;5.402;2022-11-18T08:48:39;100175.78;;;9.26;87.29
76321;BME280;65132;52.088;5.402;2022-11-18T08:51:09;100186.81;;;9.32;87.41
76321;BME280;65132;52.088;5.402;2022-11-18T08:53:36;100184.97;;;9.68;86.21
76321;BME280;65132;52.088;5.402;2022-11-18T08:56:03;100186.69;;;9.51;85.85
76321;BME280;65132;52.088;5.402;2022-11-18T08:58:30;100190.53;;;9.49;86.01
76321;BME280;65132;52.088;5.402;2022-11-18T09:00:56;100196.69;;;9.41;86.78
76321;BME280;65132;52.088;5.402;2022-11-18T09:03:23;100202.00;;;9.06;87.88
76321;BME280;65132;52.088;5.402;2022-11-18T09:05:49;100202.22;;;9.22;87.47
76321;BME280;65132;52.088;5.402;2022-11-18T09:08:16;100203.28;;;9.12;88.14
76321;BME280;65132;52.088;5.402;2022-11-18T09:10:42;100204.06;;;8.95;89.00
76321;BME280;65132;52.088;5.402;2022-11-18T09:13:08;100210.34;;;8.86;89.29
76321;BME280;65132;52.088;5.402;2022-11-18T09:15:59;100217.25;;;8.71;89.70
76321;BME280;65132;52.088;5.402;2022-11-18T09:18:25;100227.16;;;8.70;90.35
76321;BME280;65132;52.088;5.402;2022-11-18T09:20:57;100229.13;;;8.78;89.39
76321;BME280;65132;52.088;5.402;2022-11-18T09:23:24;100227.47;;;8.77;90.49
76321;BME280;65132;52.088;5.402;2022-11-18T09:26:02;100234.44;;;8.70;89.87
76321;BME280;65132;52.088;5.402;2022-11-18T09:28:28;100234.84;;;8.75;89.79
76321;BME280;65132;52.088;5.402;2022-11-18T09:30:55;100233.69;;;9.31;87.68
76321;BME280;65132;52.088;5.402;2022-11-18T09:33:22;100232.75;;;9.85;85.28
76321;BME280;65132;52.088;5.402;2022-11-18T09:35:49;100236.84;;;10.24;82.58
76321;BME280;65132;52.088;5.402;2022-11-18T09:38:15;100237.78;;;10.58;81.82
76321;BME280;65132;52.088;5.402;2022-11-18T09:43:38;100243.88;;;10.35;82.46
76321;BME280;65132;52.088;5.402;2022-11-18T09:48:48;100256.63;;;10.25;82.83
76321;BME280;65132;52.088;5.402;2022-11-18T09:51:14;100245.69;;;10.77;80.36
76321;BME280;65132;52.088;5.402;2022-11-18T09:53:43;100247.69;;;10.50;80.54
76321;BME280;65132;52.088;5.402;2022-11-18T09:56:13;100247.16;;;10.46;81.22
76321;BME280;65132;52.088;5.402;2022-11-18T09:58:40;100250.59;;;11.16;79.55
76321;BME280;65132;52.088;5.402;2022-11-18T10:01:15;100259.81;;;11.80;75.60
76321;BME280;65132;52.088;5.402;2022-11-18T10:03:43;100253.59;;;11.46;76.54
76321;BME280;65132;52.088;5.402;2022-11-18T10:06:31;100266.69;;;11.59;75.30
76321;BME280;65132;52.088;5.402;2022-11-18T10:19:56;100296.88;;;9.48;85.29
76321;BME280;65132;52.088;5.402;2022-11-18T10:22:36;100296.19;;;9.36;86.40
76321;BME280;65132;52.088;5.402;2022-11-18T10:25:12;100293.78;;;9.60;86.57
76321;BME280;65132;52.088;5.402;2022-11-18T10:27:41;100296.28;;;9.72;85.33
76321;BME280;65132;52.088;5.402;2022-11-18T10:33:00;100298.13;;;10.33;82.86
76321;BME280;65132;52.088;5.402;2022-11-18T10:35:33;100298.63;;;10.02;83.93
76321;BME280;65132;52.088;5.402;2022-11-18T10:38:19;100294.44;;;9.90;84.27
76321;BME280;65132;52.088;5.402;2022-11-18T10:43:45;100311.44;;;10.00;85.13
76321;BME280;65132;52.088;5.402;2022-11-18T10:51:37;100305.75;;;10.20;84.88
76321;BME280;65132;52.088;5.402;2022-11-18T10:54:13;100305.22;;;10.34;84.58
76321;BME280;65132;52.088;5.402;2022-11-18T10:56:57;100311.63;;;10.33;83.67
76321;BME280;65132;52.088;5.402;2022-11-18T10:59:29;100312.41;;;10.26;82.95
76321;BME280;65132;52.088;5.402;2022-11-18T11:01:58;100309.75;;;10.34;84.09
76321;BME280;65132;52.088;5.402;2022-11-18T11:04:35;100304.44;;;10.42;84.03
76321;BME280;65132;52.088;5.402;2022-11-18T11:07:23;100315.75;;;10.63;83.12
76321;BME280;65132;52.088;5.402;2022-11-18T11:12:28;100321.97;;;10.38;85.18
76321;BME280;65132;52.088;5.402;2022-11-18T11:15:00;100319.91;;;10.14;84.22
76321;BME280;65132;52.088;5.402;2022-11-18T11:17:33;100329.47;;;10.09;85.15
76321;BME280;65132;52.088;5.402;2022-11-18T11:20:19;100326.09;;;10.24;84.22
76321;BME280;65132;52.088;5.402;2022-11-18T11:22:46;100321.50;;;10.42;83.92
76321;BME280;65132;52.088;5.402;2022-11-18T11:25:31;100325.06;;;11.12;82.20
76321;BME280;65132;52.088;5.402;2022-11-18T11:28:37;100322.25;;;10.70;82.82
76321;BME280;65132;52.088;5.402;2022-11-18T11:31:46;100328.41;;;11.06;82.00
76321;BME280;65132;52.088;5.402;2022-11-18T11:34:45;100331.81;;;11.75;79.02
76321;BME280;65132;52.088;5.402;2022-11-18T11:37:28;100339.25;;;12.71;76.38
76321;BME280;65132;52.088;5.402;2022-11-18T11:40:05;100321.69;;;13.76;71.89
76321;BME280;65132;52.088;5.402;2022-11-18T11:42:56;100340.56;;;13.31;71.92
76321;BME280;65132;52.088;5.402;2022-11-18T11:45:57;100336.34;;;13.20;72.16
76321;BME280;65132;52.088;5.402;2022-11-18T11:48:51;100332.97;;;13.65;70.36
76321;BME280;65132;52.088;5.402;2022-11-18T11:54:26;100333.25;;;13.32;70.84
76321;BME280;65132;52.088;5.402;2022-11-18T11:57:16;100335.09;;;14.08;69.50
76321;BME280;65132;52.088;5.402;2022-11-18T12:00:00;100331.41;;;14.55;66.26
76321;BME280;65132;52.088;5.402;2022-11-18T12:05:07;100341.78;;;12.48;74.33
76321;BME280;65132;52.088;5.402;2022-11-18T12:07:42;100343.25;;;12.11;74.49
76321;BME280;65132;52.088;5.402;2022-11-18T12:13:22;100351.91;;;11.31;79.73
76321;BME280;65132;52.088;5.402;2022-11-18T12:18:41;100350.06;;;11.06;80.55
76321;BME280;65132;52.088;5.402;2022-11-18T12:26:48;100353.72;;;11.22;80.95
76321;BME280;65132;52.088;5.402;2022-11-18T12:31:51;100364.25;;;11.00;80.63
76321;BME280;65132;52.088;5.402;2022-11-18T12:36:52;100373.94;;;11.10;79.39
76321;BME280;65132;52.088;5.402;2022-11-18T12:41:55;100380.72;;;11.06;80.44
76321;BME280;65132;52.088;5.402;2022-11-18T12:44:23;100381.41;;;11.08;78.99
76321;BME280;65132;52.088;5.402;2022-11-18T12:46:58;100372.13;;;10.93;80.12
76321;BME280;65132;52.088;5.402;2022-11-18T12:51:53;100367.19;;;10.88;80.90
76321;BME280;65132;52.088;5.402;2022-11-18T12:54:34;100379.44;;;10.75;81.56
76321;BME280;65132;52.088;5.402;2022-11-18T12:57:22;100392.59;;;10.70;81.96
76321;BME280;65132;52.088;5.402;2022-11-18T12:59:49;100383.41;;;10.63;82.82
76321;BME280;65132;52.088;5.402;2022-11-18T13:02:35;100388.53;;;10.48;82.40
76321;BME280;65132;52.088;5.402;2022-11-18T13:05:08;100388.59;;;10.56;82.96
76321;BME280;65132;52.088;5.402;2022-11-18T13:07:58;100394.22;;;10.45;83.63
76321;BME280;65132;52.088;5.402;2022-11-18T13:10:30;100385.28;;;10.45;83.91
76321;BME280;65132;52.088;5.402;2022-11-18T13:12:58;100395.41;;;10.43;83.49
76321;BME280;65132;52.088;5.402;2022-11-18T13:15:25;100392.06;;;10.49;83.88
76321;BME280;65132;52.088;5.402;2022-11-18T13:18:10;100400.03;;;10.68;83.16
76321;BME280;65132;52.088;5.402;2022-11-18T13:20:40;100394.28;;;10.71;82.48
76321;BME280;65132;52.088;5.402;2022-11-18T13:25:46;100398.88;;;10.53;82.35
76321;BME280;65132;52.088;5.402;2022-11-18T13:31:26;100399.72;;;10.53;82.83
76321;BME280;65132;52.088;5.402;2022-11-18T13:34:03;100396.88;;;10.55;82.54
76321;BME280;65132;52.088;5.402;2022-11-18T13:36:33;100405.75;;;10.65;82.75
76321;BME280;65132;52.088;5.402;2022-11-18T13:39:03;100406.34;;;10.76;82.39
76321;BME280;65132;52.088;5.402;2022-11-18T13:41:32;100415.66;;;10.74;82.88
76321;BME280;65132;52.088;5.402;2022-11-18T13:44:23;100418.09;;;10.67;81.94
76321;BME280;65132;52.088;5.402;2022-11-18T13:46:54;100412.69;;;10.67;83.09
76321;BME280;65132;52.088;5.402;2022-11-18T13:49:48;100422.38;;;10.52;83.77
76321;BME280;65132;52.088;5.402;2022-11-18T13:52:23;100426.94;;;10.52;83.67
76321;BME280;65132;52.088;5.402;2022-11-18T13:54:54;100420.28;;;10.46;83.94
76321;BME280;65132;52.088;5.402;2022-11-18T13:57:23;100419.38;;;10.55;83.54
76321;BME280;65132;52.088;5.402;2022-11-18T13:59:51;100420.53;;;10.53;83.90
76321;BME280;65132;52.088;5.402;2022-11-18T14:02:18;100411.94;;;10.40;84.39
76321;BME280;65132;52.088;5.402;2022-11-18T14:04:58;100424.75;;;10.38;84.31
76321;BME280;65132;52.088;5.402;2022-11-18T14:07:29;100427.69;;;10.44;84.24
76321;BME280;65132;52.088;5.402;2022-11-18T14:10:01;100428.34;;;10.38;84.90
76321;BME280;65132;52.088;5.402;2022-11-18T14:12:30;100427.63;;;10.36;84.78
76321;BME280;65132;52.088;5.402;2022-11-18T14:15:20;100432.34;;;10.34;84.63
76321;BME280;65132;52.088;5.402;2022-11-18T14:17:54;100424.75;;;10.38;85.42
76321;BME280;65132;52.088;5.402;2022-11-18T14:20:22;100426.94;;;10.34;85.22
76321;BME280;65132;52.088;5.402;2022-11-18T14:22:54;100427.78;;;10.35;85.31
76321;BME280;65132;52.088;5.402;2022-11-18T14:25:30;100431.56;;;10.24;85.67
76321;BME280;65132;52.088;5.402;2022-11-18T14:31:01;100443.13;;;10.17;86.31
76321;BME280;65132;52.088;5.402;2022-11-18T14:33:33;100453.22;;;10.15;86.53
76321;BME280;65132;52.088;5.402;2022-11-18T14:36:11;100448.28;;;10.10;87.13
76321;BME280;65132;52.088;5.402;2022-11-18T14:38:47;100449.28;;;10.09;87.08
76321;BME280;65132;52.088;5.402;2022-11-18T14:41:34;100459.38;;;10.07;87.88
76321;BME280;65132;52.088;5.402;2022-11-18T14:44:07;100451.84;;;10.11;88.16
76321;BME280;65132;52.088;5.402;2022-11-18T14:46:36;100450.00;;;10.11;87.64
76321;BME280;65132;52.088;5.402;2022-11-18T14:49:05;100454.94;;;10.06;87.96